createdAt,value
2018-09-21T00:01:03.000Z,20.03
2018-09-21T00:02:03.056Z,20.07
2018-09-21T00:03:56.055Z,20.02
2018-09-21T00:04:56.115Z,20.02
2018-09-21T00:06:49.115Z,20.07
2018-09-21T00:07:49.204Z,20.07
2018-09-21T00:09:42.188Z,20.11
2018-09-21T00:10:42.235Z,20.04
2018-09-21T00:12:35.232Z,20.02
2018-09-21T00:13:35.292Z,20.02
2018-09-21T00:15:28.291Z,19.99
2018-09-21T00:16:28.348Z,19.95
2018-09-21T00:18:21.342Z,19.95
2018-09-21T00:19:21.405Z,19.99
2018-09-21T00:21:14.405Z,19.86
2018-09-21T00:22:14.460Z,19.99
2018-09-21T00:24:07.455Z,19.89
2018-09-21T00:25:07.517Z,19.95
2018-09-21T00:27:00.515Z,19.96
2018-09-21T00:28:00.574Z,19.95
2018-09-21T00:29:53.575Z,19.91
2018-09-21T00:30:53.626Z,19.85
2018-09-21T00:32:46.620Z,19.85
2018-09-21T00:33:46.685Z,19.86
2018-09-21T00:35:39.683Z,19.77
2018-09-21T00:36:39.744Z,19.82
2018-09-21T00:38:32.737Z,19.73
2018-09-21T00:39:32.800Z,19.74
2018-09-21T00:41:25.795Z,19.74
2018-09-21T00:42:25.853Z,19.66
2018-09-21T00:44:18.852Z,19.69
2018-09-21T00:45:18.910Z,19.66
2018-09-21T00:47:11.910Z,19.52
2018-09-21T00:48:11.964Z,19.62
2018-09-21T00:50:04.958Z,19.54
2018-09-21T00:51:05.023Z,19.52
2018-09-21T00:52:58.020Z,19.47
2018-09-21T00:53:58.074Z,19.44
2018-09-21T00:55:51.069Z,19.47
2018-09-21T00:56:51.130Z,19.49
2018-09-21T00:58:44.136Z,19.36
2018-09-21T00:59:44.189Z,19.48
2018-09-21T01:01:37.188Z,19.54
2018-09-21T01:02:37.246Z,19.45
2018-09-21T01:04:30.245Z,19.47
2018-09-21T01:05:30.307Z,19.44
2018-09-21T01:07:23.308Z,19.47
2018-09-21T01:08:23.366Z,19.39
2018-09-21T01:10:16.355Z,19.30
2018-09-21T01:11:16.418Z,19.31
2018-09-21T01:13:09.418Z,19.39
2018-09-21T01:14:09.473Z,19.29
2018-09-21T01:16:02.468Z,19.34
2018-09-21T01:17:02.529Z,19.31
2018-09-21T01:18:55.529Z,19.39
2018-09-21T01:19:55.585Z,19.36
2018-09-21T01:21:48.588Z,19.29
2018-09-21T01:22:48.644Z,19.31
2018-09-21T01:24:41.637Z,19.30
2018-09-21T01:25:41.698Z,19.21
2018-09-21T01:27:34.698Z,19.26
2018-09-21T01:28:34.755Z,19.24
2018-09-21T01:30:27.754Z,19.26
2018-09-21T01:31:27.816Z,19.18
2018-09-21T01:33:20.815Z,19.19
2018-09-21T01:34:20.899Z,19.08
2018-09-21T01:36:13.862Z,19.16
2018-09-21T01:37:13.948Z,19.21
2018-09-21T01:39:06.924Z,19.31
2018-09-21T01:40:06.987Z,19.34
2018-09-21T01:41:59.979Z,19.39
2018-09-21T01:43:00.037Z,19.39
2018-09-21T01:44:53.033Z,19.52
2018-09-21T01:45:53.098Z,19.40
2018-09-21T01:47:46.101Z,19.45
2018-09-21T01:48:46.147Z,19.54
2018-09-21T01:50:39.141Z,19.51
2018-09-21T01:51:39.206Z,19.56
2018-09-21T01:53:32.205Z,19.67
2018-09-21T01:54:32.261Z,19.69
2018-09-21T01:56:25.261Z,19.79
2018-09-21T01:57:25.323Z,19.73
2018-09-21T01:59:18.321Z,19.67
2018-09-21T02:00:18.380Z,19.70
2018-09-21T02:02:11.375Z,19.85
2018-09-21T02:03:11.455Z,19.77
2018-09-21T02:05:04.437Z,19.84
2018-09-21T02:06:04.519Z,19.82
2018-09-21T02:07:57.489Z,19.82
2018-09-21T02:08:57.551Z,19.74
2018-09-21T02:10:50.548Z,19.84
2018-09-21T02:11:50.609Z,19.85
2018-09-21T02:13:43.607Z,20.00
2018-09-21T02:14:43.663Z,19.89
2018-09-21T02:16:36.654Z,19.95
2018-09-21T02:17:36.728Z,20.00
2018-09-21T02:19:29.721Z,20.06
2018-09-21T02:20:29.779Z,20.03
2018-09-21T02:22:22.771Z,20.06
2018-09-21T02:23:22.836Z,20.16
2018-09-21T02:25:15.833Z,20.14
2018-09-21T02:26:15.892Z,20.13
2018-09-21T02:28:08.892Z,20.09
2018-09-21T02:29:08.956Z,20.07
2018-09-21T02:31:01.966Z,20.02
2018-09-21T02:32:02.019Z,20.00
2018-09-21T02:33:55.025Z,20.03
2018-09-21T02:34:55.073Z,19.88
2018-09-21T02:36:48.071Z,19.94
2018-09-21T02:37:48.128Z,19.94
2018-09-21T02:39:41.127Z,20.03
2018-09-21T02:40:41.199Z,20.03
2018-09-21T02:42:34.181Z,20.03
2018-09-21T02:43:34.241Z,20.09
2018-09-21T02:45:27.238Z,20.04
2018-09-21T02:46:27.299Z,19.94
2018-09-21T02:48:20.290Z,19.99
2018-09-21T02:49:20.357Z,19.99
2018-09-21T02:51:13.353Z,19.99
2018-09-21T02:52:13.413Z,20.00
2018-09-21T02:54:06.404Z,20.04
2018-09-21T02:55:06.468Z,20.07
2018-09-21T02:56:59.466Z,20.13
2018-09-21T02:57:59.524Z,20.10
2018-09-21T02:59:52.521Z,20.14
2018-09-21T03:00:52.637Z,20.11
2018-09-21T03:02:45.576Z,20.26
2018-09-21T03:03:45.674Z,20.13
2018-09-21T03:05:38.638Z,20.16
2018-09-21T03:06:38.694Z,20.18
2018-09-21T03:08:31.693Z,20.25
2018-09-21T03:09:31.751Z,20.11
2018-09-21T03:11:24.751Z,20.18
2018-09-21T03:12:24.810Z,20.09
2018-09-21T03:14:17.804Z,20.19
2018-09-21T03:15:17.866Z,20.10
2018-09-21T03:17:10.865Z,20.16
2018-09-21T03:18:10.921Z,20.22
2018-09-21T03:20:03.910Z,20.19
2018-09-21T03:21:03.969Z,20.29
2018-09-21T03:22:56.974Z,20.34
2018-09-21T03:23:57.034Z,20.24
2018-09-21T03:25:50.029Z,20.29
2018-09-21T03:26:50.089Z,20.39
2018-09-21T03:28:43.082Z,20.36
2018-09-21T03:29:43.146Z,20.41
2018-09-21T03:31:36.670Z,20.44
2018-09-21T03:32:36.710Z,20.44
2018-09-21T03:34:29.708Z,20.52
2018-09-21T03:35:29.767Z,20.52
2018-09-21T03:37:22.766Z,20.56
2018-09-21T03:38:22.824Z,20.56
2018-09-21T03:40:15.820Z,20.59
2018-09-21T03:41:15.880Z,20.56
2018-09-21T03:43:08.929Z,20.70
2018-09-21T03:44:08.933Z,20.72
2018-09-21T03:46:01.925Z,20.70
2018-09-21T03:47:01.986Z,20.78
2018-09-21T03:48:54.990Z,20.93
2018-09-21T03:49:55.043Z,20.90
2018-09-21T03:51:48.043Z,20.97
2018-09-21T03:52:48.102Z,20.95
2018-09-21T03:54:41.100Z,21.02
2018-09-21T03:55:41.163Z,20.97
2018-09-21T03:57:34.162Z,21.14
2018-09-21T03:58:34.221Z,21.12
2018-09-21T04:00:27.214Z,21.21
2018-09-21T04:01:27.282Z,21.18
2018-09-21T04:03:20.276Z,21.21
2018-09-21T04:04:20.333Z,21.27
2018-09-21T04:06:13.331Z,21.36
2018-09-21T04:07:13.390Z,21.32
2018-09-21T04:09:06.389Z,21.37
2018-09-21T04:10:06.443Z,21.40
2018-09-21T04:11:59.456Z,21.48
2018-09-21T04:12:59.503Z,21.48
2018-09-21T04:14:52.495Z,21.42
2018-09-21T04:15:52.560Z,21.40
2018-09-21T04:17:45.565Z,21.43
2018-09-21T04:18:45.620Z,21.43
2018-09-21T04:20:38.615Z,21.43
2018-09-21T04:21:38.677Z,21.43
2018-09-21T04:23:31.677Z,21.45
2018-09-21T04:24:31.735Z,21.46
2018-09-21T04:26:24.728Z,21.40
2018-09-21T04:27:24.792Z,21.48
2018-09-21T04:29:17.792Z,21.54
2018-09-21T04:30:17.857Z,21.52
2018-09-21T04:32:10.873Z,21.37
2018-09-21T04:33:10.904Z,21.36
2018-09-21T04:35:03.903Z,21.36
2018-09-21T04:36:03.980Z,21.54
2018-09-21T04:37:56.973Z,21.46
2018-09-21T04:38:57.020Z,21.48
2018-09-21T04:40:50.013Z,21.52
2018-09-21T04:41:50.078Z,21.58
2018-09-21T04:43:43.077Z,21.52
2018-09-21T04:44:43.132Z,21.42
2018-09-21T04:46:36.130Z,21.60
2018-09-21T04:47:36.188Z,21.55
2018-09-21T04:49:29.195Z,21.58
2018-09-21T04:50:29.255Z,21.60
2018-09-21T04:52:22.305Z,21.62
2018-09-21T04:53:22.327Z,21.66
2018-09-21T04:55:15.323Z,21.64
2018-09-21T04:56:15.382Z,21.66
2018-09-21T04:58:08.377Z,21.76
2018-09-21T04:59:08.437Z,21.83
2018-09-21T05:01:01.437Z,21.79
2018-09-21T05:02:01.495Z,21.79
2018-09-21T05:03:54.519Z,21.75
2018-09-21T05:04:54.577Z,21.79
2018-09-21T05:06:47.568Z,21.85
2018-09-21T05:07:47.632Z,21.80
2018-09-21T05:09:40.630Z,21.88
2018-09-21T05:10:40.685Z,21.83
2018-09-21T05:12:33.675Z,21.80
2018-09-21T05:13:33.778Z,21.89
2018-09-21T05:15:26.742Z,21.93
2018-09-21T05:16:26.800Z,21.93
2018-09-21T05:18:19.794Z,21.96
2018-09-21T05:19:19.857Z,22.04
2018-09-21T05:21:12.854Z,22.06
2018-09-21T05:22:12.913Z,22.07
2018-09-21T05:24:05.907Z,22.06
2018-09-21T05:25:05.966Z,22.02
2018-09-21T05:26:58.961Z,22.15
2018-09-21T05:27:59.024Z,22.14
2018-09-21T05:29:52.024Z,22.25
2018-09-21T05:30:52.078Z,22.15
2018-09-21T05:32:45.080Z,22.20
2018-09-21T05:33:45.133Z,22.23
2018-09-21T05:35:38.203Z,22.25
2018-09-21T05:36:38.190Z,22.18
2018-09-21T05:38:31.217Z,22.23
2018-09-21T05:39:31.243Z,22.25
2018-09-21T05:41:24.245Z,22.33
2018-09-21T05:42:24.303Z,22.33
2018-09-21T05:44:17.296Z,22.45
2018-09-21T05:45:17.361Z,22.44
2018-09-21T05:47:10.373Z,22.60
2018-09-21T05:48:10.416Z,22.48
2018-09-21T05:50:03.477Z,22.72
2018-09-21T05:51:03.535Z,22.72
2018-09-21T05:52:56.534Z,22.65
2018-09-21T05:53:56.594Z,22.72
2018-09-21T05:55:49.598Z,22.72
2018-09-21T05:56:49.659Z,22.69
2018-09-21T05:58:42.651Z,22.72
2018-09-21T05:59:42.715Z,22.78
2018-09-21T06:01:35.722Z,22.80
2018-09-21T06:02:35.841Z,22.78
2018-09-21T06:04:28.780Z,22.83
2018-09-21T06:05:28.883Z,22.83
2018-09-21T06:07:21.848Z,22.81
2018-09-21T06:08:21.905Z,22.75
2018-09-21T06:10:14.902Z,22.87
2018-09-21T06:11:14.967Z,22.88
2018-09-21T06:13:07.970Z,22.76
2018-09-21T06:14:08.092Z,22.80
2018-09-21T06:16:01.022Z,22.90
2018-09-21T06:17:01.090Z,22.91
2018-09-21T06:18:54.089Z,22.93
2018-09-21T06:19:54.149Z,22.88
2018-09-21T06:21:47.149Z,23.03
2018-09-21T06:22:47.220Z,23.03
2018-09-21T06:24:40.204Z,22.98
2018-09-21T06:25:40.267Z,23.02
2018-09-21T06:27:33.267Z,23.00
2018-09-21T06:28:33.326Z,23.15
2018-09-21T06:30:26.322Z,23.20
2018-09-21T06:31:26.386Z,23.17
2018-09-21T06:33:19.382Z,23.28
2018-09-21T06:34:19.442Z,23.36
2018-09-21T06:36:12.445Z,23.25
2018-09-21T06:37:12.502Z,23.28
2018-09-21T06:39:05.500Z,23.37
2018-09-21T06:40:05.558Z,23.34
2018-09-21T06:41:58.559Z,23.36
2018-09-21T06:42:58.622Z,23.40
2018-09-21T06:44:51.622Z,23.51
2018-09-21T06:45:51.681Z,23.58
2018-09-21T06:47:44.682Z,23.68
2018-09-21T06:48:44.745Z,23.62
2018-09-21T06:50:37.745Z,23.59
2018-09-21T06:51:37.806Z,23.58
2018-09-21T06:53:30.803Z,23.47
2018-09-21T06:54:30.862Z,23.37
2018-09-21T06:56:23.860Z,23.36
2018-09-21T06:57:23.924Z,23.25
2018-09-21T06:59:16.934Z,23.36
2018-09-21T07:00:16.991Z,23.36
2018-09-21T07:02:09.997Z,23.36
2018-09-21T07:03:10.057Z,23.24
2018-09-21T07:05:03.064Z,23.36
2018-09-21T07:06:03.120Z,23.20
2018-09-21T07:07:56.115Z,23.23
2018-09-21T07:08:56.179Z,23.20
2018-09-21T07:10:49.183Z,23.17
2018-09-21T07:11:49.239Z,23.08
2018-09-21T07:13:42.248Z,23.10
2018-09-21T07:14:42.309Z,23.02
2018-09-21T07:16:35.298Z,23.05
2018-09-21T07:17:35.364Z,22.98
2018-09-21T07:19:28.366Z,23.02
2018-09-21T07:20:28.423Z,22.93
2018-09-21T07:22:21.426Z,22.96
2018-09-21T07:23:21.484Z,22.96
2018-09-21T07:25:14.488Z,22.93
2018-09-21T07:26:14.549Z,22.98
2018-09-21T07:28:07.547Z,22.99
2018-09-21T07:29:07.609Z,22.99
2018-09-21T07:31:00.703Z,22.96
2018-09-21T07:32:00.666Z,23.02
2018-09-21T07:33:53.659Z,23.00
2018-09-21T07:34:53.723Z,23.10
2018-09-21T07:36:46.727Z,23.23
2018-09-21T07:37:46.786Z,23.31
2018-09-21T07:39:39.792Z,23.41
2018-09-21T07:40:39.846Z,23.41
2018-09-21T07:42:32.847Z,23.32
2018-09-21T07:43:32.914Z,23.28
2018-09-21T07:45:25.914Z,23.13
2018-09-21T07:46:25.971Z,23.13
2018-09-21T07:48:18.971Z,23.13
2018-09-21T07:49:19.056Z,23.12
2018-09-21T07:51:12.031Z,23.05
2018-09-21T07:52:12.090Z,22.96
2018-09-21T07:54:05.084Z,23.03
2018-09-21T07:55:05.148Z,23.03
2018-09-21T07:56:58.145Z,23.02
2018-09-21T07:57:58.206Z,23.06
2018-09-21T07:59:51.206Z,23.06
2018-09-21T08:00:51.269Z,23.00
2018-09-21T08:02:44.274Z,23.00
2018-09-21T08:03:44.328Z,23.02
2018-09-21T08:05:37.332Z,22.93
2018-09-21T08:06:37.389Z,22.96
2018-09-21T08:08:30.390Z,23.05
2018-09-21T08:09:30.451Z,23.00
2018-09-21T08:11:23.449Z,23.03
2018-09-21T08:12:23.510Z,22.99
2018-09-21T08:14:16.501Z,23.10
2018-09-21T08:15:16.588Z,23.18
2018-09-21T08:17:09.569Z,23.31
2018-09-21T08:18:09.627Z,23.37
2018-09-21T08:20:02.623Z,23.46
2018-09-21T08:21:02.687Z,23.47
2018-09-21T08:22:55.689Z,23.34
2018-09-21T08:23:55.762Z,23.24
2018-09-21T08:25:48.741Z,23.37
2018-09-21T08:26:48.806Z,23.41
2018-09-21T08:28:41.809Z,23.34
2018-09-21T08:29:41.868Z,23.25
2018-09-21T08:31:35.495Z,23.34
2018-09-21T08:32:35.440Z,23.34
2018-09-21T08:34:28.496Z,23.31
2018-09-21T08:35:28.564Z,23.27
2018-09-21T08:37:21.657Z,23.02
2018-09-21T08:38:21.623Z,22.98
2018-09-21T08:40:14.624Z,22.80
2018-09-21T08:41:14.686Z,22.66
2018-09-21T08:43:07.690Z,22.53
2018-09-21T08:44:07.747Z,22.50
2018-09-21T08:46:00.747Z,22.26
2018-09-21T08:47:00.808Z,22.15
2018-09-21T08:48:53.814Z,21.69
2018-09-21T08:49:53.872Z,21.54
2018-09-21T08:51:46.868Z,21.21
2018-09-21T08:52:46.932Z,21.27
2018-09-21T08:54:39.937Z,21.03
2018-09-21T08:55:39.991Z,20.95
2018-09-21T08:57:32.996Z,20.78
2018-09-21T08:58:33.053Z,20.72
2018-09-21T09:00:26.045Z,20.52
2018-09-21T09:01:26.112Z,20.37
2018-09-21T09:03:19.179Z,20.03
2018-09-21T09:04:19.198Z,19.91
2018-09-21T09:06:12.192Z,19.85
2018-09-21T09:07:12.256Z,19.56
2018-09-21T09:09:05.257Z,19.54
2018-09-21T09:10:05.317Z,19.54
2018-09-21T09:11:58.315Z,19.02
2018-09-21T09:12:58.375Z,18.59
2018-09-21T09:14:51.375Z,17.87
2018-09-21T09:15:51.431Z,17.64
2018-09-21T09:17:44.425Z,17.34
2018-09-21T09:18:44.489Z,17.23
2018-09-21T09:20:37.487Z,17.02
2018-09-21T09:21:37.543Z,17.05
2018-09-21T09:23:30.540Z,16.87
2018-09-21T09:24:30.607Z,16.86
2018-09-21T09:26:23.606Z,16.89
2018-09-21T09:27:23.653Z,16.86
2018-09-21T09:29:16.652Z,16.94
2018-09-21T09:30:16.709Z,16.93
2018-09-21T09:32:10.210Z,16.89
2018-09-21T09:33:10.270Z,17.02
2018-09-21T09:35:03.271Z,17.08
2018-09-21T09:36:03.330Z,17.23
2018-09-21T09:37:56.324Z,17.48
2018-09-21T09:38:56.388Z,17.76
2018-09-21T09:40:49.388Z,17.94
2018-09-21T09:41:49.446Z,17.92
2018-09-21T09:43:42.441Z,17.78
2018-09-21T09:44:42.505Z,17.87
2018-09-21T09:46:35.505Z,17.95
2018-09-21T09:47:35.562Z,17.97
2018-09-21T09:49:28.570Z,17.94
2018-09-21T09:50:28.623Z,17.87
2018-09-21T09:52:21.613Z,17.67
2018-09-21T09:53:21.679Z,17.65
2018-09-21T09:55:14.681Z,17.63
2018-09-21T09:56:14.738Z,17.65
2018-09-21T09:58:07.737Z,17.54
2018-09-21T09:59:07.798Z,17.48
2018-09-21T10:01:00.794Z,17.38
2018-09-21T10:02:00.851Z,17.30
2018-09-21T10:03:53.874Z,17.45
2018-09-21T10:04:53.930Z,17.41
2018-09-21T10:06:46.923Z,17.33
2018-09-21T10:07:46.979Z,17.22
2018-09-21T10:09:39.974Z,17.11
2018-09-21T10:10:40.036Z,17.09
2018-09-21T10:12:33.036Z,16.89
2018-09-21T10:13:33.088Z,16.89
2018-09-21T10:15:26.095Z,16.86
2018-09-21T10:16:26.157Z,16.78
2018-09-21T10:18:19.142Z,16.99
2018-09-21T10:19:19.205Z,17.09
2018-09-21T10:21:12.202Z,16.96
2018-09-21T10:22:12.259Z,16.96
2018-09-21T10:24:05.295Z,17.04
2018-09-21T10:25:05.313Z,17.02
2018-09-21T10:26:58.354Z,16.93
2018-09-21T10:27:58.516Z,17.02
2018-09-21T10:29:51.385Z,17.01
2018-09-21T10:30:51.426Z,16.91
2018-09-21T10:32:44.416Z,16.78
2018-09-21T10:33:44.670Z,17.02
2018-09-21T10:35:37.559Z,16.97
2018-09-21T10:36:37.535Z,17.05
2018-09-21T10:38:30.528Z,17.05
2018-09-21T10:39:30.587Z,17.14
2018-09-21T10:41:23.588Z,17.08
2018-09-21T10:42:23.665Z,17.06
2018-09-21T10:44:16.635Z,17.15
2018-09-21T10:45:16.697Z,17.14
2018-09-21T10:47:09.698Z,17.34
2018-09-21T10:48:09.752Z,17.24
2018-09-21T10:50:02.741Z,17.19
2018-09-21T10:51:02.800Z,17.06
2018-09-21T10:52:55.800Z,17.09
2018-09-21T10:53:55.854Z,17.06
2018-09-21T10:55:48.845Z,17.05
2018-09-21T10:56:48.905Z,17.11
2018-09-21T10:58:41.972Z,17.14
2018-09-21T10:59:41.959Z,17.04
2018-09-21T11:01:34.954Z,17.27
2018-09-21T11:02:35.013Z,17.42
2018-09-21T11:04:28.016Z,17.42
2018-09-21T11:05:28.061Z,17.36
2018-09-21T11:07:21.110Z,17.23
2018-09-21T11:08:21.117Z,17.27
2018-09-21T11:10:14.106Z,17.33
2018-09-21T11:11:14.172Z,17.41
2018-09-21T11:13:07.249Z,17.72
2018-09-21T11:14:07.220Z,17.98
2018-09-21T11:16:00.210Z,18.03
2018-09-21T11:17:00.270Z,17.92
2018-09-21T11:18:53.267Z,17.86
2018-09-21T11:19:53.326Z,18.07
2018-09-21T11:21:46.323Z,18.16
2018-09-21T11:22:46.387Z,18.10
2018-09-21T11:24:39.384Z,18.05
2018-09-21T11:25:39.440Z,18.04
2018-09-21T11:27:32.433Z,18.00
2018-09-21T11:28:32.497Z,17.90
2018-09-21T11:30:25.502Z,18.11
2018-09-21T11:31:25.560Z,18.18
2018-09-21T11:33:18.557Z,17.97
2018-09-21T11:34:18.616Z,18.19
2018-09-21T11:36:11.606Z,18.34
2018-09-21T11:37:11.670Z,18.34
2018-09-21T11:39:04.673Z,18.44
2018-09-21T11:40:04.732Z,18.47
2018-09-21T11:41:57.720Z,18.55
2018-09-21T11:42:57.780Z,18.53
2018-09-21T11:44:50.785Z,18.70
2018-09-21T11:45:50.840Z,18.70
2018-09-21T11:47:43.972Z,18.83
2018-09-21T11:48:43.897Z,18.74
2018-09-21T11:50:36.897Z,18.81
2018-09-21T11:51:36.957Z,18.59
2018-09-21T11:53:29.955Z,18.80
2018-09-21T11:54:30.014Z,18.83
2018-09-21T11:56:23.004Z,18.89
2018-09-21T11:57:23.070Z,18.77
2018-09-21T11:59:16.072Z,18.38
2018-09-21T12:00:16.128Z,18.23
2018-09-21T12:02:09.146Z,18.08
2018-09-21T12:03:09.192Z,17.95
2018-09-21T12:05:02.282Z,17.82
2018-09-21T12:06:02.266Z,17.78
2018-09-21T12:07:55.259Z,17.76
2018-09-21T12:08:56.307Z,17.76
2018-09-21T12:10:48.334Z,17.72
2018-09-21T12:11:48.390Z,17.78
2018-09-21T12:13:41.380Z,17.95
2018-09-21T12:14:41.442Z,18.15
2018-09-21T12:16:34.453Z,18.07
2018-09-21T12:17:34.501Z,18.13
2018-09-21T12:19:27.511Z,18.29
2018-09-21T12:20:27.555Z,18.34
2018-09-21T12:22:20.551Z,18.37
2018-09-21T12:23:20.612Z,18.41
2018-09-21T12:25:13.608Z,18.55
2018-09-21T12:26:13.663Z,18.59
2018-09-21T12:28:06.655Z,18.68
2018-09-21T12:29:06.717Z,18.70
2018-09-21T12:30:59.716Z,18.63
2018-09-21T12:31:59.770Z,18.68
2018-09-21T12:33:52.760Z,18.68
2018-09-21T12:34:52.824Z,18.70
2018-09-21T12:36:45.821Z,18.66
2018-09-21T12:37:45.878Z,18.77
2018-09-21T12:39:38.876Z,18.78
2018-09-21T12:40:38.932Z,18.73
2018-09-21T12:42:31.988Z,18.68
2018-09-21T12:43:31.985Z,18.68
2018-09-21T12:45:24.986Z,18.70
2018-09-21T12:46:25.045Z,18.63
2018-09-21T12:48:18.049Z,18.62
2018-09-21T12:49:18.103Z,18.66
2018-09-21T12:51:11.100Z,18.73
2018-09-21T12:52:11.156Z,18.86
2018-09-21T12:54:04.158Z,18.66
2018-09-21T12:55:04.501Z,18.80
2018-09-21T12:56:57.396Z,18.77
2018-09-21T12:57:57.493Z,18.59
2018-09-21T12:59:50.317Z,18.60
2018-09-21T13:00:50.386Z,18.66
2018-09-21T13:02:43.388Z,18.74
2018-09-21T13:03:43.433Z,18.68
2018-09-21T13:05:36.423Z,18.63
2018-09-21T13:06:36.488Z,18.68
2018-09-21T13:08:29.512Z,18.66
2018-09-21T13:09:29.538Z,18.62
2018-09-21T13:11:22.547Z,18.56
2018-09-21T13:12:22.603Z,18.55
2018-09-21T13:14:15.617Z,18.49
2018-09-21T13:15:15.655Z,18.50
2018-09-21T13:17:08.650Z,18.60
2018-09-21T13:18:08.709Z,18.62
2018-09-21T13:20:01.702Z,18.63
2018-09-21T13:21:01.763Z,18.66
2018-09-21T13:22:54.759Z,18.62
2018-09-21T13:23:54.816Z,18.60
2018-09-21T13:25:47.852Z,18.53
2018-09-21T13:26:47.968Z,18.35
2018-09-21T13:28:40.880Z,18.34
2018-09-21T13:29:40.931Z,18.37
2018-09-21T13:31:34.432Z,18.16
2018-09-21T13:32:34.492Z,18.16
2018-09-21T13:34:27.491Z,18.25
2018-09-21T13:35:27.547Z,18.22
2018-09-21T13:37:20.540Z,18.35
2018-09-21T13:38:20.619Z,18.40
2018-09-21T13:40:14.098Z,18.52
2018-09-21T13:41:14.171Z,18.49
2018-09-21T13:43:07.170Z,18.63
2018-09-21T13:44:07.247Z,18.59
2018-09-21T13:46:00.217Z,18.52
2018-09-21T13:47:00.282Z,18.66
2018-09-21T13:48:53.292Z,18.70
2018-09-21T13:49:53.346Z,18.78
2018-09-21T13:51:46.383Z,18.75
2018-09-21T13:52:46.405Z,18.89
2018-09-21T13:54:39.408Z,18.83
2018-09-21T13:55:39.463Z,18.81
2018-09-21T13:57:32.957Z,18.98
2018-09-21T13:58:33.023Z,18.80
2018-09-21T14:00:26.019Z,18.70
2018-09-21T14:01:26.076Z,18.60
2018-09-21T14:03:19.106Z,18.29
2018-09-21T14:04:19.136Z,18.37
2018-09-21T14:06:12.125Z,18.49
2018-09-21T14:07:12.187Z,18.60
2018-09-21T14:09:05.183Z,18.60
2018-09-21T14:10:05.244Z,18.44
2018-09-21T14:11:58.239Z,18.28
2018-09-21T14:12:58.308Z,18.33
2018-09-21T14:14:51.297Z,18.41
2018-09-21T14:15:51.355Z,18.55
2018-09-21T14:17:44.359Z,18.49
2018-09-21T14:18:44.421Z,18.40
2018-09-21T14:20:37.444Z,18.28
2018-09-21T14:26:01.117Z,17.87
2018-09-21T14:27:01.171Z,17.86
2018-09-21T14:28:54.727Z,17.94
2018-09-21T14:29:54.729Z,17.95
2018-09-21T14:31:47.732Z,18.11
2018-09-21T14:32:47.787Z,18.10
2018-09-21T14:34:40.797Z,18.03
2018-09-21T14:35:40.852Z,17.95
2018-09-21T14:37:33.861Z,17.78
2018-09-21T14:38:33.922Z,17.82
2018-09-21T14:40:26.915Z,17.87
2018-09-21T14:41:26.971Z,17.95
2018-09-21T14:43:19.968Z,17.94
2018-09-21T14:44:20.029Z,18.11
2018-09-21T14:46:13.053Z,18.16
2018-09-21T14:47:13.100Z,18.20
2018-09-21T14:49:06.087Z,18.20
2018-09-21T14:50:06.146Z,18.28
2018-09-21T14:51:59.153Z,18.25
2018-09-21T14:52:59.206Z,18.31
2018-09-21T14:54:52.199Z,18.34
2018-09-21T14:55:52.258Z,18.37
2018-09-21T14:57:45.266Z,18.34
2018-09-21T14:58:45.319Z,18.34
2018-09-21T15:00:38.320Z,18.25
2018-09-21T15:01:38.361Z,18.22
2018-09-21T15:03:31.350Z,18.20
2018-09-21T15:04:31.428Z,18.16
2018-09-21T15:06:24.420Z,18.04
2018-09-21T15:07:24.476Z,17.92
2018-09-21T15:09:17.468Z,17.92
2018-09-21T15:10:17.537Z,18.08
2018-09-21T15:12:10.533Z,18.15
2018-09-21T15:13:10.588Z,18.03
2018-09-21T15:15:03.585Z,18.01
2018-09-21T15:16:03.645Z,17.94
2018-09-21T15:17:58.152Z,17.95
2018-09-21T15:18:58.203Z,17.97
2018-09-21T15:20:51.192Z,17.97
2018-09-21T15:21:51.251Z,17.92
2018-09-21T15:23:44.270Z,17.87
2018-09-21T15:24:44.319Z,17.87
2018-09-21T15:26:37.314Z,17.85
2018-09-21T15:27:37.368Z,17.72
2018-09-21T15:29:30.377Z,17.83
2018-09-21T15:30:30.426Z,17.80
2018-09-21T15:32:23.429Z,17.86
2018-09-21T15:33:23.483Z,17.85
2018-09-21T15:35:16.475Z,17.85
2018-09-21T15:36:16.538Z,17.82
2018-09-21T15:38:09.531Z,17.85
2018-09-21T15:39:09.584Z,17.74
2018-09-21T15:41:02.576Z,17.80
2018-09-21T15:42:02.641Z,17.71
2018-09-21T15:43:55.633Z,17.72
2018-09-21T15:44:55.682Z,17.72
2018-09-21T15:46:48.677Z,17.82
2018-09-21T15:47:48.745Z,17.76
2018-09-21T15:49:41.741Z,17.60
2018-09-21T15:50:41.793Z,17.65
2018-09-21T15:52:34.835Z,17.63
2018-09-21T15:53:34.844Z,17.59
2018-09-21T15:55:27.832Z,17.56
2018-09-21T15:56:27.894Z,17.60
2018-09-21T15:58:20.890Z,17.34
2018-09-21T15:59:20.943Z,17.38
2018-09-21T16:01:13.936Z,17.31
2018-09-21T16:02:14.000Z,17.27
2018-09-21T16:04:07.005Z,17.26
2018-09-21T16:05:07.049Z,17.26
2018-09-21T16:07:00.089Z,17.22
2018-09-21T16:08:00.111Z,17.23
2018-09-21T16:09:53.102Z,17.24
2018-09-21T16:10:53.159Z,17.16
2018-09-21T16:12:46.145Z,17.23
2018-09-21T16:13:46.218Z,17.16
2018-09-21T16:15:39.204Z,17.23
2018-09-21T16:16:39.261Z,17.20
2018-09-21T16:18:32.254Z,17.11
2018-09-21T16:19:32.309Z,17.08
2018-09-21T16:21:25.297Z,16.97
2018-09-21T16:22:25.359Z,17.09
2018-09-21T16:24:18.407Z,17.08
2018-09-21T16:25:18.406Z,17.06
2018-09-21T16:27:11.393Z,17.05
2018-09-21T16:28:11.458Z,17.06
2018-09-21T16:30:04.450Z,17.05
2018-09-21T16:31:04.504Z,16.96
2018-09-21T16:32:57.531Z,16.97
2018-09-21T16:33:57.550Z,16.93
2018-09-21T16:35:50.568Z,16.97
2018-09-21T16:36:50.603Z,17.05
2018-09-21T16:38:43.586Z,16.99
2018-09-21T16:39:43.648Z,16.93
2018-09-21T16:41:36.643Z,16.83
2018-09-21T16:42:36.697Z,16.87
2018-09-21T16:44:29.718Z,16.84
2018-09-21T16:45:29.747Z,16.86
2018-09-21T16:47:22.733Z,16.74
2018-09-21T16:48:22.797Z,16.81
2018-09-21T16:50:15.800Z,16.71
2018-09-21T16:51:15.891Z,16.79
2018-09-21T16:53:08.843Z,16.74
2018-09-21T16:54:08.902Z,16.64
2018-09-21T16:56:01.899Z,16.60
2018-09-21T16:57:02.011Z,16.60
2018-09-21T16:58:54.956Z,16.57
2018-09-21T16:59:55.005Z,16.51
2018-09-21T17:01:47.996Z,16.46
2018-09-21T17:02:48.052Z,16.47
2018-09-21T17:04:41.093Z,16.39
2018-09-21T17:05:41.099Z,16.33
2018-09-21T17:07:34.092Z,16.26
2018-09-21T17:08:34.145Z,16.24
2018-09-21T17:10:27.139Z,16.32
2018-09-21T17:11:27.273Z,16.23
2018-09-21T17:13:20.177Z,16.29
2018-09-21T17:14:20.237Z,16.23
2018-09-21T17:16:13.236Z,16.28
2018-09-21T17:17:13.284Z,16.10
2018-09-21T17:19:06.278Z,16.01
2018-09-21T17:20:06.389Z,16.09
2018-09-21T17:21:59.340Z,16.08
2018-09-21T17:22:59.390Z,15.92
2018-09-21T17:24:52.379Z,16.02
2018-09-21T17:25:52.462Z,16.04
2018-09-21T17:27:45.433Z,16.00
2018-09-21T17:28:45.484Z,15.94
2018-09-21T17:30:38.470Z,15.84
2018-09-21T17:31:38.548Z,15.88
2018-09-21T17:33:31.526Z,15.76
2018-09-21T17:34:31.582Z,15.79
2018-09-21T17:36:24.576Z,15.79
2018-09-21T17:37:24.627Z,15.80
2018-09-21T17:39:17.613Z,15.80
2018-09-21T17:40:17.674Z,15.73
2018-09-21T17:42:10.665Z,15.67
2018-09-21T17:43:10.769Z,15.73
2018-09-21T17:45:03.704Z,15.68
2018-09-21T17:46:03.765Z,15.64
2018-09-21T17:47:56.754Z,15.65
2018-09-21T17:48:56.809Z,15.57
2018-09-21T17:50:49.794Z,15.55
2018-09-21T17:51:49.855Z,15.54
2018-09-21T17:53:42.846Z,15.55
2018-09-21T17:54:42.906Z,15.59
2018-09-21T17:56:35.889Z,15.70
2018-09-21T17:57:35.952Z,15.52
2018-09-21T17:59:29.452Z,15.58
2018-09-21T18:00:29.504Z,15.57
2018-09-21T18:02:22.504Z,15.59
2018-09-21T18:03:22.551Z,15.59
2018-09-21T18:05:15.534Z,15.68
2018-09-21T18:06:15.596Z,15.58
2018-09-21T18:08:08.588Z,15.65
2018-09-21T18:09:08.641Z,15.76
2018-09-21T18:11:01.630Z,15.68
2018-09-21T18:12:01.691Z,15.67
2018-09-21T18:13:54.685Z,15.75
2018-09-21T18:14:54.742Z,15.91
2018-09-21T18:16:47.736Z,15.92
2018-09-21T18:17:47.795Z,15.83
2018-09-21T18:19:40.795Z,15.79
2018-09-21T18:20:40.843Z,15.77
2018-09-21T18:22:33.867Z,15.79
2018-09-21T18:23:33.925Z,15.75
2018-09-21T18:25:26.952Z,15.76
2018-09-21T18:26:26.970Z,15.75
2018-09-21T18:28:19.966Z,15.83
2018-09-21T18:29:20.030Z,15.95
2018-09-21T18:31:13.013Z,15.91
2018-09-21T18:32:13.071Z,15.79
2018-09-21T18:34:06.092Z,15.79
2018-09-21T18:35:06.130Z,15.90
2018-09-21T18:36:59.120Z,15.91
2018-09-21T18:37:59.178Z,15.86